Angler Guide Weather for Edson -
Edson, Alberta Current Weather Conditions
Enter your "Place, State", US Zip Code or ICAO:  
Forecast Information Radar Information
Edson, Alberta, Canada  Lat: 53.57N, Lon: 116.45W
ICAO Used: CYZU
Current Conditions
Updated:
Sun & Moon Information:
Temp: N/A
Humidity: N/A
Wind Speed: N/A
Barometer: N/A
Dewpoint: N/A
Heat Index: N/A
Wind Chill: N/A
Civil Twilight: 7:39 AM MST
Moonrise: 10:10 AM MST Moon Phase:
Waxing Crescent Moon
Waxing Crescent Moon
Moonset: 6:37 PM MST
Sunrise: 8:19 AM MST
Sunset: 4:41 PM MST
Civil Twilight: 5:21 PM MST
Forecast for Edson, AB:
(Forecast based on TAF for )
0316 PM MST MON NOV 06 2006
  
AFTERNOONEVENINGOVERNIGHTMORNING
LIGHT SNOWLIGHT SNOWLIGHT SNOWLIGHT SNOW
Light
Snow
Light
Snow
Light
Snow
Light
Snow
TAF based forecast:
Dated: 0316 PM MST MON NOV 06 2006
Afternoon...Overcast with light snow,light snow grains and mist with winds from the east at 9 mph. Possible periods of overcast with mist.
Evening...Overcast with light snow,light snow grains and mist with winds from the east at 9 mph.
Overnight...Overcast with light snow,light snow grains and mist with winds from the east at 9 mph.
Morning...Overcast with light snow,light snow grains and mist with winds from the east at 9 mph.
Original Encoded TAF:
Dated: 0316 PM MST MON NOV 06 2006
2006/11/06 22:16
CYZU 062216Z 062223 10008KT 2SM -SN -SG BR OVC002 TEMPO 2223 4SM BR OVC008=




Powered by Angler Guide.com
Copyright 2007, all rights reserved.